Lincolnton, New York
Current Conditions -  °F | °C
As of 3:51 PM on Wednesday 17 Dec 2014 (Local Time) from KNYC Reporting Station
Overcast Overcast  
Wind Chill: 51°   Ceiling: 3700
Heat Index: 51°   Visibility: 10mi
Dew Point: 35°   Wind: 10mph
Humidity: 54%   Direction: 280°W
Pressure: 29.85"   Gusts: 23mph
Location:  40.8135°N, 73.9374°W
Report Text: KNYC 172051Z AUTO 28009G20KT 10SM BKN037 OVC044 11/02 A2985 RMK AO2 SLP101 T01060017 53009 $
Loading
Personal Weather Stations






























Interactive Weather Map New forecast layout! Learn more

10-Day Weather Forecast

Advertisements
Track Severe Weather on mobile